Time;durP1;ratioP1;P1;durP2;ratioP2;P2;SDS_P1;SDS_P2;PMS_P1;PMS_P2;Temp;Humidity;BMP_temperature;BMP_pressure;BME280_temperature;BME280_humidity;BME280_pressure;Samples;Min_cycle;Max_cycle;Signal;HPM_P1;HPM_P2
2021/05/18 00:00:36;;;;;;;6.28;2.40;;;10.40;99.90;;;;;;5003546;28;20061;-69
2021/05/18 00:03:05;;;;;;;7.13;2.13;;;10.40;99.90;;;;;;5003676;28;20052;-69
2021/05/18 00:05:32;;;;;;;5.47;2.20;;;10.50;99.90;;;;;;5002836;28;20048;-69
2021/05/18 00:08:01;;;;;;;4.07;2.00;;;10.40;99.90;;;;;;5005712;28;20041;-69
2021/05/18 00:13:18;;;;;;;3.60;1.92;;;10.50;99.90;;;;;;5005613;28;20237;-69
2021/05/18 00:15:46;;;;;;;3.75;1.70;;;10.40;99.90;;;;;;5002889;28;20505;-69
2021/05/18 00:18:13;;;;;;;5.05;1.92;;;10.40;99.90;;;;;;5005969;28;20049;-69
2021/05/18 00:20:40;;;;;;;4.13;1.80;;;10.50;99.90;;;;;;5004239;28;20080;-69
2021/05/18 00:23:09;;;;;;;10.73;2.50;;;10.50;99.90;;;;;;5002910;28;20151;-69
2021/05/18 00:25:37;;;;;;;5.95;1.65;;;10.60;99.90;;;;;;5000159;28;20509;-69
2021/05/18 00:28:04;;;;;;;3.35;1.80;;;10.70;99.90;;;;;;4999935;28;20052;-69
2021/05/18 00:30:31;;;;;;;5.90;1.80;;;10.70;99.90;;;;;;5005465;28;20547;-69
2021/05/18 00:32:58;;;;;;;4.50;2.13;;;10.90;99.90;;;;;;5001073;28;20452;-69
2021/05/18 00:35:24;;;;;;;3.88;1.90;;;10.90;99.90;;;;;;5001773;28;20053;-70
2021/05/18 00:37:51;;;;;;;6.70;1.52;;;10.90;99.90;;;;;;5001498;28;20221;-69
2021/05/18 00:40:20;;;;;;;4.43;1.48;;;10.90;99.90;;;;;;5001839;28;20053;-69
2021/05/18 00:42:50;;;;;;;4.55;1.80;;;10.90;99.90;;;;;;5003446;28;20056;-69
2021/05/18 00:45:30;;;;;;;4.82;1.85;;;10.80;99.90;;;;;;5004072;28;20041;-69
2021/05/18 00:47:58;;;;;;;6.55;2.22;;;10.80;99.90;;;;;;5005741;28;20136;-69
2021/05/18 00:50:25;;;;;;;3.72;1.90;;;10.80;99.90;;;;;;5003222;28;20061;-69
2021/05/18 00:52:51;;;;;;;5.00;2.30;;;10.90;99.90;;;;;;5000952;28;20064;-69
2021/05/18 00:55:22;;;;;;;4.00;2.20;;;10.90;99.90;;;;;;5001567;28;20045;-69
2021/05/18 01:00:31;;;;;;;7.32;2.28;;;10.80;99.90;;;;;;4991375;28;20055;-69
2021/05/18 01:02:57;;;;;;;5.30;2.38;;;10.80;99.90;;;;;;5001574;28;20613;-69
2021/05/18 01:06:18;;;;;;;6.82;2.20;;;10.90;99.90;;;;;;5005585;28;20053;-69
2021/05/18 01:08:11;;;;;;;7.28;2.25;;;10.80;99.90;;;;;;5003757;28;20060;-69
2021/05/18 01:10:38;;;;;;;6.53;2.40;;;10.80;99.90;;;;;;5004049;28;20512;-69
2021/05/18 01:13:06;;;;;;;4.50;2.60;;;10.70;99.90;;;;;;5004345;28;20414;-69
2021/05/18 01:15:33;;;;;;;4.70;2.53;;;10.70;99.90;;;;;;5002853;28;20063;-69
2021/05/18 01:17:59;;;;;;;6.40;2.50;;;10.80;99.90;;;;;;5001008;28;20049;-69
2021/05/18 01:20:26;;;;;;;7.30;2.60;;;10.80;99.90;;;;;;5004093;28;20049;-69
2021/05/18 01:22:54;;;;;;;4.15;2.35;;;10.80;99.90;;;;;;5003703;28;20049;-69
2021/05/18 01:25:22;;;;;;;5.85;2.70;;;10.80;99.90;;;;;;5004001;28;20711;-69
2021/05/18 01:27:49;;;;;;;4.18;2.42;;;10.80;99.90;;;;;;4999567;28;20314;-69
2021/05/18 01:30:17;;;;;;;6.32;2.40;;;10.80;99.90;;;;;;5004031;28;20483;-69
2021/05/18 01:32:43;;;;;;;4.05;2.42;;;10.80;99.90;;;;;;5007952;28;20119;-69
2021/05/18 01:35:11;;;;;;;8.18;2.70;;;10.80;99.90;;;;;;5007642;28;20059;-69
2021/05/18 01:37:39;;;;;;;7.85;3.05;;;10.80;99.90;;;;;;5003241;28;20057;-69
2021/05/18 01:40:18;;;;;;;6.40;2.72;;;10.80;99.90;;;;;;5008853;28;20078;-69
2021/05/18 01:42:47;;;;;;;8.30;3.08;;;10.80;99.90;;;;;;5008567;28;20513;-69
2021/05/18 01:45:17;;;;;;;6.97;3.28;;;10.80;99.90;;;;;;5008403;28;20079;-69
2021/05/18 01:47:48;;;;;;;5.47;2.78;;;10.80;99.90;;;;;;5006060;28;20053;-69
2021/05/18 01:50:15;;;;;;;7.38;3.22;;;10.80;99.90;;;;;;5010335;28;20049;-69
2021/05/18 01:52:42;;;;;;;6.03;3.28;;;10.70;99.90;;;;;;5007824;28;20163;-70
2021/05/18 01:55:13;;;;;;;6.40;3.13;;;10.70;99.90;;;;;;5008918;28;20056;-69
2021/05/18 01:57:40;;;;;;;8.60;2.85;;;10.70;99.90;;;;;;5003787;28;20168;-69
2021/05/18 02:00:10;;;;;;;5.72;2.95;;;10.60;99.90;;;;;;5008507;28;20057;-69
2021/05/18 02:02:36;;;;;;;8.18;3.45;;;10.60;99.90;;;;;;5005091;28;20052;-69
2021/05/18 02:05:07;;;;;;;7.13;3.60;;;10.50;99.90;;;;;;5008670;28;20049;-69
2021/05/18 02:07:38;;;;;;;8.55;3.55;;;10.50;99.90;;;;;;5004911;28;20045;-69
2021/05/18 02:10:06;;;;;;;8.07;3.22;;;10.50;99.90;;;;;;5007985;28;20420;-69
2021/05/18 02:12:34;;;;;;;7.80;3.20;;;10.60;99.90;;;;;;5006841;28;20060;-69
2021/05/18 02:15:06;;;;;;;7.72;3.90;;;10.50;99.90;;;;;;5007136;28;20505;-69
2021/05/18 02:17:36;;;;;;;6.80;3.35;;;10.60;99.90;;;;;;5004039;28;20053;-69
2021/05/18 02:20:21;;;;;;;8.18;4.38;;;10.50;99.90;;;;;;5009048;28;20080;-69
2021/05/18 02:25:33;;;;;;;11.70;3.88;;;10.50;99.90;;;;;;5003170;28;20092;-69
2021/05/18 02:28:01;;;;;;;8.52;4.38;;;10.60;99.90;;;;;;5005446;28;20060;-69
2021/05/18 02:30:27;;;;;;;6.95;3.72;;;10.50;99.90;;;;;;5005788;28;20146;-69
2021/05/18 02:32:55;;;;;;;8.65;4.15;;;10.50;99.90;;;;;;5007207;28;20502;-69
2021/05/18 02:35:22;;;;;;;10.05;4.00;;;10.50;99.90;;;;;;5004060;28;20049;-69
2021/05/18 02:37:49;;;;;;;6.65;4.22;;;10.50;99.90;;;;;;5005905;28;20053;-69
2021/05/18 02:40:19;;;;;;;8.30;3.92;;;10.40;99.90;;;;;;5005923;28;20070;-69
2021/05/18 02:42:47;;;;;;;11.15;4.20;;;10.40;99.90;;;;;;5005874;28;20132;-69
2021/05/18 02:45:24;;;;;;;6.10;3.90;;;10.30;99.90;;;;;;5005905;28;20168;-69
2021/05/18 02:50:35;;;;;;;9.15;3.90;;;10.30;99.90;;;;;;5006973;28;20060;-69
2021/05/18 02:53:02;;;;;;;10.32;3.90;;;10.40;99.90;;;;;;5007133;28;20083;-69
2021/05/18 02:55:35;;;;;;;8.40;4.28;;;10.40;99.90;;;;;;5005535;28;20386;-70
2021/05/18 02:58:02;;;;;;;8.00;4.10;;;10.40;99.90;;;;;;5005111;28;20056;-69
2021/05/18 03:00:29;;;;;;;8.40;4.57;;;10.30;99.90;;;;;;5004495;28;20049;-69
2021/05/18 03:02:56;;;;;;;9.32;3.92;;;10.40;99.90;;;;;;5005546;28;20045;-69
2021/05/18 03:05:24;;;;;;;8.98;4.38;;;10.50;99.90;;;;;;5005042;28;20049;-69
2021/05/18 03:07:52;;;;;;;7.53;3.80;;;10.40;99.90;;;;;;5004950;28;20060;-69
2021/05/18 03:10:20;;;;;;;10.20;3.80;;;10.40;99.90;;;;;;5007812;28;20484;-70
2021/05/18 03:12:47;;;;;;;7.28;3.92;;;10.50;99.90;;;;;;5004427;28;20064;-70
2021/05/18 03:15:15;;;;;;;7.32;3.65;;;10.50;99.90;;;;;;5004785;28;20083;-70
2021/05/18 03:17:43;;;;;;;8.73;3.80;;;10.50;99.90;;;;;;5002987;28;20049;-69
2021/05/18 03:20:13;;;;;;;5.93;3.22;;;10.60;99.90;;;;;;5006689;28;20045;-69
2021/05/18 03:22:40;;;;;;;9.95;3.72;;;10.60;99.90;;;;;;5005912;28;20054;-70
2021/05/18 03:25:08;;;;;;;8.20;3.42;;;10.70;99.90;;;;;;5004225;28;20075;-70
2021/05/18 03:27:35;;;;;;;6.95;3.17;;;10.60;99.90;;;;;;5004968;28;20045;-70
2021/05/18 03:30:16;;;;;;;5.70;3.13;;;10.60;99.90;;;;;;5004045;28;20057;-69
2021/05/18 03:35:28;;;;;;;8.40;4.18;;;10.60;99.90;;;;;;5005958;28;20081;-70
2021/05/18 03:37:56;;;;;;;5.90;2.67;;;10.60;99.90;;;;;;5001903;28;20052;-70
2021/05/18 03:40:26;;;;;;;8.63;3.30;;;10.60;99.90;;;;;;5007752;28;20056;-70
2021/05/18 03:42:58;;;;;;;7.05;3.05;;;10.70;99.90;;;;;;5004291;28;20059;-69
2021/05/18 03:45:26;;;;;;;6.40;2.72;;;10.70;99.90;;;;;;5005122;28;20056;-69
2021/05/18 03:53:44;;;;;;;7.85;2.70;;;10.60;99.90;;;;;;4963372;28;20137;-70
2021/05/18 04:02:39;;;;;;;8.70;2.75;;;10.60;99.90;;;;;;5006641;28;20055;-70
2021/05/18 04:04:46;;;;;;;4.95;2.50;;;10.80;99.90;;;;;;5004321;28;20059;-69
2021/05/18 04:10:22;;;;;;;7.60;2.78;;;10.90;99.90;;;;;;5006503;28;20476;-70
2021/05/18 04:12:50;;;;;;;8.25;2.70;;;10.70;99.90;;;;;;5006775;28;20049;-70
2021/05/18 04:18:08;;;;;;;6.85;3.38;;;10.70;99.90;;;;;;5005892;28;20056;-69
2021/05/18 04:20:44;;;;;;;7.00;2.80;;;10.80;99.90;;;;;;5007026;28;20140;-70
2021/05/18 04:48:42;;;;;;;6.30;3.28;;;11.00;99.90;;;;;;5005843;28;20095;-71
2021/05/18 04:51:20;;;;;;;6.68;3.38;;;11.00;99.90;;;;;;5004997;28;20060;-71
2021/05/18 04:54:08;;;;;;;5.45;2.95;;;11.10;99.90;;;;;;5003428;28;20123;-70
2021/05/18 04:59:22;;;;;;;6.57;3.20;;;11.00;99.90;;;;;;5002819;28;20055;-70
2021/05/18 05:01:56;;;;;;;5.22;2.95;;;11.10;99.90;;;;;;5003317;28;20053;-70
2021/05/18 05:07:05;;;;;;;10.75;3.30;;;11.20;99.90;;;;;;4999593;28;20080;-71
2021/05/18 05:09:34;;;;;;;6.55;3.28;;;11.30;99.90;;;;;;5002664;28;21213;-70
2021/05/18 05:12:34;;;;;;;8.90;3.10;;;11.40;99.90;;;;;;5004117;28;20115;-70
2021/05/18 05:15:01;;;;;;;8.52;3.25;;;11.50;99.90;;;;;;5004859;28;20053;-70
2021/05/18 05:17:28;;;;;;;6.82;2.92;;;11.70;99.90;;;;;;5004091;28;20672;-70
2021/05/18 05:19:54;;;;;;;4.55;2.45;;;11.30;99.90;;;;;;5003572;28;20054;-70
2021/05/18 05:22:21;;;;;;;5.93;3.08;;;11.40;99.90;;;;;;5003840;28;20049;-70
2021/05/18 05:24:48;;;;;;;5.35;2.83;;;11.50;99.90;;;;;;5001419;28;20053;-70
2021/05/18 05:27:15;;;;;;;8.82;2.45;;;11.50;99.90;;;;;;5000824;28;20099;-70
2021/05/18 05:29:41;;;;;;;6.45;2.90;;;11.50;99.90;;;;;;5005243;28;20060;-70
2021/05/18 05:32:08;;;;;;;5.65;2.88;;;11.50;99.90;;;;;;5001102;28;20053;-70
2021/05/18 05:34:34;;;;;;;5.25;2.80;;;11.40;99.90;;;;;;5003268;28;20110;-70
2021/05/18 05:37:01;;;;;;;9.30;2.65;;;11.40;99.90;;;;;;4998521;28;20888;-70
2021/05/18 05:39:27;;;;;;;6.38;2.85;;;11.40;99.90;;;;;;5002797;28;20061;-70
2021/05/18 05:41:56;;;;;;;5.50;2.60;;;11.60;99.90;;;;;;5002043;28;20072;-70
2021/05/18 05:44:22;;;;;;;5.75;2.58;;;11.70;99.90;;;;;;5002573;28;20049;-70
2021/05/18 05:46:49;;;;;;;6.28;2.85;;;11.90;99.90;;;;;;5003036;28;20054;-70
2021/05/18 05:49:16;;;;;;;3.78;2.13;;;11.80;99.90;;;;;;5004260;28;20425;-70
2021/05/18 05:51:43;;;;;;;7.63;2.45;;;11.90;99.90;;;;;;5002396;28;20064;-70
2021/05/18 05:54:10;;;;;;;7.57;2.47;;;11.80;99.90;;;;;;5005369;28;20564;-70
2021/05/18 05:56:36;;;;;;;5.05;2.22;;;11.60;99.90;;;;;;5003808;28;20418;-70
2021/05/18 05:59:07;;;;;;;6.93;2.28;;;11.60;99.90;;;;;;5002210;28;20100;-70
2021/05/18 06:01:34;;;;;;;5.45;2.63;;;11.60;99.90;;;;;;5006030;28;20061;-70
2021/05/18 06:04:00;;;;;;;5.15;2.05;;;11.50;99.90;;;;;;5003746;28;20065;-69
2021/05/18 06:06:27;;;;;;;4.32;2.00;;;11.40;99.90;;;;;;5006356;28;20057;-69
2021/05/18 06:08:54;;;;;;;9.48;3.25;;;11.50;99.90;;;;;;5002420;28;20087;-69
2021/05/18 06:11:25;;;;;;;6.93;2.30;;;11.60;99.90;;;;;;5005035;28;20398;-69
2021/05/18 06:14:16;;;;;;;4.47;2.00;;;11.70;99.90;;;;;;5004353;28;20071;-69
2021/05/18 06:41:37;;;;;;;6.22;1.50;;;11.90;99.90;;;;;;5010750;28;20052;-69
2021/05/18 06:47:05;;;;;;;2.75;1.67;;;12.20;99.90;;;;;;4941259;28;20413;-70
2021/05/18 06:49:36;;;;;;;2.38;1.30;;;12.50;99.90;;;;;;4998257;28;20064;-70
2021/05/18 06:52:03;;;;;;;3.33;1.40;;;12.50;99.90;;;;;;5015861;28;20115;-70
2021/05/18 06:54:29;;;;;;;4.65;1.63;;;12.70;99.90;;;;;;5015531;28;20395;-70
2021/05/18 06:56:59;;;;;;;3.85;1.35;;;12.80;99.90;;;;;;5015608;28;20053;-70
2021/05/18 07:02:13;;;;;;;2.83;1.30;;;12.70;99.90;;;;;;4998968;28;20052;-69
2021/05/18 07:04:41;;;;;;;2.47;1.50;;;12.80;99.90;;;;;;5002032;28;20492;-70
2021/05/18 07:07:14;;;;;;;5.70;1.40;;;12.80;99.90;;;;;;5002600;28;21097;-68
2021/05/18 07:09:40;;;;;;;4.50;1.25;;;12.80;99.90;;;;;;5001685;28;20646;-67
2021/05/18 07:12:08;;;;;;;3.45;1.15;;;12.90;99.90;;;;;;5000974;28;20102;-67
2021/05/18 07:14:38;;;;;;;2.97;1.20;;;13.00;99.90;;;;;;5001006;28;20501;-68
2021/05/18 07:17:04;;;;;;;3.05;1.00;;;13.00;99.90;;;;;;5001853;28;20595;-69
2021/05/18 07:19:31;;;;;;;3.03;1.02;;;12.90;99.90;;;;;;5004709;28;20527;-68
2021/05/18 07:21:58;;;;;;;2.95;1.10;;;13.20;99.90;;;;;;5003227;28;20057;-67
2021/05/18 07:24:28;;;;;;;2.30;1.10;;;13.30;99.90;;;;;;5000740;28;20057;-66
2021/05/18 07:26:55;;;;;;;2.35;1.08;;;13.40;99.90;;;;;;5001761;28;20065;-66
2021/05/18 07:29:22;;;;;;;5.70;1.20;;;13.60;99.90;;;;;;5003453;28;20053;-67
2021/05/18 07:31:48;;;;;;;3.28;1.10;;;13.60;99.90;;;;;;5003015;28;20061;-66
2021/05/18 07:34:15;;;;;;;3.08;1.08;;;13.70;99.90;;;;;;4999449;28;20059;-66
2021/05/18 07:36:48;;;;;;;2.78;0.90;;;13.60;99.90;;;;;;5001023;28;20112;-67
2021/05/18 07:39:15;;;;;;;6.13;1.38;;;13.40;99.90;;;;;;5002361;28;20052;-66
2021/05/18 07:41:42;;;;;;;3.25;1.20;;;13.30;99.90;;;;;;5001639;28;20107;-66
2021/05/18 07:44:09;;;;;;;7.35;1.20;;;13.50;99.90;;;;;;5002044;28;20049;-67
2021/05/18 07:46:39;;;;;;;5.68;1.10;;;13.50;99.90;;;;;;4999794;28;20057;-67
2021/05/18 08:07:01;;;;;;;5.15;1.00;;;14.20;99.90;;;;;;5011876;28;20059;-69
2021/05/18 08:09:28;;;;;;;3.92;1.17;;;14.80;99.90;;;;;;5012993;28;20135;-69
2021/05/18 08:11:56;;;;;;;4.72;1.13;;;14.90;99.90;;;;;;5012580;28;20048;-69
2021/05/18 08:14:25;;;;;;;6.18;1.52;;;14.70;99.90;;;;;;5012374;28;20266;-67
2021/05/18 08:17:04;;;;;;;2.88;1.17;;;14.70;99.90;;;;;;5012483;28;20057;-67
2021/05/18 08:56:07;;;;;;;4.45;1.42;;;15.80;99.90;;;;;;5009636;28;20083;-69
2021/05/18 09:44:04;;;;;;;4.65;1.00;;;15.50;99.90;;;;;;5004095;28;20057;-69
2021/05/18 10:24:38;;;;;;;2.95;1.10;;;17.10;99.90;;;;;;5016855;28;20163;-70
2021/05/18 10:35:38;;;;;;;1.85;1.08;;;16.80;99.90;;;;;;5017630;28;20136;-70
2021/05/18 10:38:07;;;;;;;2.33;0.88;;;16.80;99.90;;;;;;5017153;28;20144;-69
2021/05/18 10:40:35;;;;;;;1.25;0.90;;;16.70;99.90;;;;;;5014362;28;20091;-69
2021/05/18 10:43:20;;;;;;;4.00;0.98;;;16.70;99.90;;;;;;5018953;28;20092;-69
2021/05/18 10:46:18;;;;;;;1.63;1.00;;;16.50;99.90;;;;;;5018248;28;20155;-69
2021/05/18 10:49:03;;;;;;;4.07;1.00;;;16.70;99.90;;;;;;5017407;28;20308;-69
2021/05/18 10:51:53;;;;;;;2.60;1.20;;;16.80;99.90;;;;;;5015433;28;20084;-69
2021/05/18 10:54:29;;;;;;;4.93;1.00;;;17.40;99.90;;;;;;5014215;28;20050;-69
2021/05/18 10:57:24;;;;;;;3.93;1.07;;;18.60;99.90;;;;;;5012858;28;20053;-69
2021/05/18 10:59:55;;;;;;;3.05;0.90;;;19.30;99.90;;;;;;5012108;28;20041;-69
2021/05/18 11:02:24;;;;;;;1.23;0.73;;;17.70;99.90;;;;;;5014742;28;20505;-69
2021/05/18 11:04:53;;;;;;;3.03;1.75;;;16.50;99.90;;;;;;5014768;28;20059;-69
2021/05/18 11:07:22;;;;;;;1.10;0.85;;;16.10;99.90;;;;;;5017564;28;20053;-69
2021/05/18 11:09:49;;;;;;;4.07;0.90;;;15.80;99.90;;;;;;5013156;28;20053;-69
2021/05/18 11:12:17;;;;;;;2.67;0.98;;;15.10;99.90;;;;;;5016124;28;20506;-69
2021/05/18 11:14:49;;;;;;;5.10;0.90;;;14.40;99.90;;;;;;5016960;28;20075;-69
2021/05/18 11:17:23;;;;;;;2.50;0.93;;;14.50;99.90;;;;;;5013580;28;20049;-68
2021/05/18 11:20:14;;;;;;;1.73;0.90;;;15.20;99.90;;;;;;5015857;28;20053;-69
2021/05/18 11:25:35;;;;;;;3.42;1.35;;;15.90;99.90;;;;;;5012098;28;20520;-69
2021/05/18 11:28:07;;;;;;;3.60;0.75;;;15.60;99.90;;;;;;5013927;28;20144;-69
2021/05/18 11:30:34;;;;;;;2.55;0.50;;;16.00;99.90;;;;;;5011430;28;20049;-69
2021/05/18 11:33:01;;;;;;;1.52;0.70;;;16.70;99.90;;;;;;5014957;28;20138;-69
2021/05/18 11:35:28;;;;;;;0.95;0.50;;;18.00;99.90;;;;;;5016292;28;20084;-70
2021/05/18 11:38:03;;;;;;;0.93;0.55;;;19.20;99.90;;;;;;5012965;28;20687;-70
2021/05/18 11:40:37;;;;;;;1.75;0.70;;;20.00;99.90;;;;;;5011750;28;20063;-71
2021/05/18 11:43:14;;;;;;;3.03;0.95;;;20.60;99.90;;;;;;5012094;28;20049;-71
2021/05/18 11:45:41;;;;;;;1.90;0.85;;;21.30;99.90;;;;;;5012016;28;20167;-69
2021/05/18 11:48:14;;;;;;;4.10;0.80;;;22.10;99.90;;;;;;5014793;28;20049;-69
2021/05/18 11:50:41;;;;;;;4.78;0.95;;;22.00;99.90;;;;;;5012878;28;20072;-69
2021/05/18 11:53:08;;;;;;;2.70;0.65;;;22.60;99.90;;;;;;5012658;28;20364;-69
2021/05/18 11:55:35;;;;;;;2.45;0.93;;;22.80;99.90;;;;;;5011383;28;20107;-69
2021/05/18 11:58:02;;;;;;;3.13;0.80;;;22.90;99.90;;;;;;5015341;28;20776;-72
2021/05/18 12:00:31;;;;;;;1.92;0.82;;;21.60;99.90;;;;;;5014628;28;20061;-71
2021/05/18 12:03:03;;;;;;;3.33;0.85;;;21.10;99.90;;;;;;5012718;28;20053;-71
2021/05/18 12:05:30;;;;;;;2.03;1.08;;;20.80;99.90;;;;;;5010998;28;20053;-70
2021/05/18 12:07:57;;;;;;;1.85;0.80;;;21.10;99.90;;;;;;5012659;28;20324;-71
2021/05/18 12:10:31;;;;;;;3.38;0.82;;;20.70;99.90;;;;;;5011974;28;20052;-71
2021/05/18 12:12:58;;;;;;;3.53;0.80;;;20.00;99.90;;;;;;5014231;28;20063;-69
2021/05/18 12:15:25;;;;;;;2.42;0.80;;;20.00;99.90;;;;;;5014428;28;20059;-69
2021/05/18 12:17:55;;;;;;;3.25;1.08;;;20.40;99.90;;;;;;5016287;28;20076;-69
2021/05/18 12:20:23;;;;;;;2.38;0.77;;;19.30;99.90;;;;;;5012779;28;20417;-71
2021/05/18 12:22:52;;;;;;;3.33;1.00;;;18.70;99.90;;;;;;5012389;28;20049;-69
2021/05/18 12:25:43;;;;;;;2.58;0.95;;;19.40;99.90;;;;;;5016338;28;20049;-66
2021/05/18 12:28:11;;;;;;;3.30;0.90;;;19.70;99.90;;;;;;4998688;28;20049;-67
2021/05/18 12:30:40;;;;;;;2.30;0.77;;;19.60;99.90;;;;;;5012535;28;20159;-68
2021/05/18 12:33:07;;;;;;;5.18;0.90;;;19.60;99.90;;;;;;5014558;28;20136;-68
2021/05/18 12:35:34;;;;;;;2.45;0.80;;;19.60;99.90;;;;;;5014279;28;20057;-69
2021/05/18 12:38:13;;;;;;;3.17;1.10;;;20.60;99.90;;;;;;5014497;28;20049;-68
2021/05/18 12:40:43;;;;;;;3.53;0.98;;;19.60;99.90;;;;;;5017829;28;20072;-69
2021/05/18 12:43:11;;;;;;;4.10;1.10;;;19.50;99.90;;;;;;5012043;28;20119;-68
2021/05/18 12:45:39;;;;;;;3.08;1.10;;;19.30;99.90;;;;;;5012115;28;20057;-66
2021/05/18 12:48:08;;;;;;;3.53;1.10;;;19.20;99.90;;;;;;5012511;28;20087;-67
2021/05/18 12:50:37;;;;;;;3.53;1.02;;;19.00;99.90;;;;;;5014635;28;20085;-67
2021/05/18 12:53:06;;;;;;;1.77;0.95;;;18.50;99.90;;;;;;5016969;28;20079;-69
2021/05/18 12:55:33;;;;;;;3.55;1.15;;;18.60;99.90;;;;;;5013367;28;20104;-67
2021/05/18 12:58:03;;;;;;;1.80;1.00;;;18.40;99.90;;;;;;5017446;28;20055;-67
2021/05/18 13:00:32;;;;;;;4.45;1.10;;;18.30;99.90;;;;;;5016812;28;20056;-66
2021/05/18 13:03:10;;;;;;;1.90;0.95;;;19.20;99.90;;;;;;5017538;28;20498;-67
2021/05/18 13:05:37;;;;;;;2.38;0.88;;;19.40;99.90;;;;;;5017356;28;20109;-68
2021/05/18 13:08:07;;;;;;;6.15;1.13;;;19.70;99.90;;;;;;5016001;28;20119;-69
2021/05/18 13:10:45;;;;;;;3.53;1.02;;;20.00;99.90;;;;;;5017339;28;20045;-67
2021/05/18 13:13:12;;;;;;;3.70;1.10;;;20.80;99.90;;;;;;5016861;28;20053;-70
2021/05/18 13:15:39;;;;;;;3.75;1.30;;;20.70;99.90;;;;;;5018993;28;20052;-69
2021/05/18 13:18:09;;;;;;;3.78;1.10;;;20.40;99.90;;;;;;5015531;28;20056;-69
2021/05/18 13:20:39;;;;;;;6.85;1.00;;;21.10;99.90;;;;;;5017360;28;20045;-70
2021/05/18 13:23:09;;;;;;;3.60;1.00;;;20.90;99.90;;;;;;5018090;28;20405;-67
2021/05/18 13:28:21;;;;;;;4.43;1.10;;;21.80;99.90;;;;;;5018595;28;20094;-68
2021/05/18 13:30:48;;;;;;;3.33;1.08;;;21.60;99.90;;;;;;5022854;28;20088;-67
2021/05/18 13:33:15;;;;;;;1.42;0.95;;;21.00;99.90;;;;;;5021263;28;20363;-67
2021/05/18 13:35:42;;;;;;;4.35;1.30;;;21.20;99.90;;;;;;5022717;28;20423;-68
2021/05/18 13:38:10;;;;;;;2.58;1.00;;;21.30;99.90;;;;;;5019704;28;20059;-68
2021/05/18 13:40:37;;;;;;;1.95;0.80;;;21.20;99.90;;;;;;5024301;28;20053;-68
2021/05/18 13:43:04;;;;;;;5.57;1.00;;;21.20;99.90;;;;;;5019609;28;20044;-68
2021/05/18 13:45:31;;;;;;;2.35;0.80;;;20.80;99.90;;;;;;5019411;28;20502;-67
2021/05/18 13:47:58;;;;;;;4.68;1.30;;;20.40;99.90;;;;;;5018699;28;20399;-67
2021/05/18 13:50:26;;;;;;;2.75;1.48;;;19.40;99.90;;;;;;5020897;28;20049;-67
2021/05/18 13:52:53;;;;;;;4.72;1.20;;;18.90;99.90;;;;;;5020068;28;20207;-67
2021/05/18 13:55:20;;;;;;;2.33;0.98;;;18.20;99.90;;;;;;5021389;28;20416;-67
2021/05/18 13:57:47;;;;;;;3.63;1.13;;;17.80;99.90;;;;;;5018547;28;20390;-67
2021/05/18 14:00:16;;;;;;;5.60;1.00;;;18.30;99.90;;;;;;5021227;28;20204;-67
2021/05/18 14:02:44;;;;;;;4.47;1.20;;;19.00;99.90;;;;;;5020963;28;20077;-68
2021/05/18 14:05:13;;;;;;;2.85;0.80;;;19.50;99.90;;;;;;5018994;28;20045;-69
2021/05/18 14:08:26;;;;;;;4.28;1.00;;;19.90;99.90;;;;;;5017179;28;20053;-69
2021/05/18 14:10:56;;;;;;;1.80;0.82;;;19.70;99.90;;;;;;5019886;28;21133;-69
2021/05/18 14:13:25;;;;;;;2.42;1.10;;;20.10;99.90;;;;;;5021438;28;20111;-68
2021/05/18 14:15:51;;;;;;;3.10;1.20;;;20.40;99.90;;;;;;5018942;28;20052;-69
2021/05/18 14:18:18;;;;;;;9.52;1.30;;;19.90;99.90;;;;;;5021229;28;20505;-68
2021/05/18 14:20:45;;;;;;;4.40;1.20;;;18.90;99.90;;;;;;5018537;28;20059;-67
2021/05/18 14:23:12;;;;;;;6.47;1.33;;;18.40;99.90;;;;;;5020787;28;20554;-68
2021/05/18 14:25:40;;;;;;;6.63;1.48;;;18.30;99.90;;;;;;5022487;28;20073;-67
2021/05/18 14:28:08;;;;;;;3.95;1.30;;;18.20;99.90;;;;;;5021446;28;20591;-67
2021/05/18 14:30:35;;;;;;;3.78;1.30;;;18.50;99.90;;;;;;5024817;28;20413;-67
2021/05/18 14:33:01;;;;;;;5.30;1.15;;;18.70;99.90;;;;;;5020821;28;20102;-67
2021/05/18 14:35:29;;;;;;;2.35;0.90;;;19.00;99.90;;;;;;5021820;28;20049;-67
2021/05/18 14:38:11;;;;;;;2.05;1.10;;;19.20;99.90;;;;;;5023039;28;20088;-67
2021/05/18 14:46:15;;;;;;;4.68;1.20;;;19.20;99.90;;;;;;5020784;28;20211;-69
2021/05/18 14:54:35;;;;;;;4.40;1.10;;;20.20;99.90;;;;;;5020215;28;20416;-67
2021/05/18 14:57:03;;;;;;;3.35;1.10;;;20.40;99.90;;;;;;5020159;28;20513;-69
2021/05/18 14:59:30;;;;;;;3.10;1.23;;;20.30;99.90;;;;;;5021837;28;20056;-69
2021/05/18 15:01:57;;;;;;;4.72;1.50;;;19.70;99.90;;;;;;5020143;28;20501;-69
2021/05/18 15:04:23;;;;;;;4.70;1.73;;;19.30;99.90;;;;;;5020562;28;20052;-69
2021/05/18 15:06:50;;;;;;;6.95;1.30;;;19.10;99.90;;;;;;5018694;28;20568;-68
2021/05/18 15:09:17;;;;;;;4.20;1.10;;;18.60;99.90;;;;;;5017652;28;20044;-68
2021/05/18 15:11:43;;;;;;;3.00;1.00;;;18.10;99.90;;;;;;5018444;28;20053;-67
2021/05/18 15:14:10;;;;;;;1.75;0.90;;;17.60;99.90;;;;;;5022157;28;20052;-67
2021/05/18 15:16:37;;;;;;;2.88;0.80;;;16.50;99.90;;;;;;5021434;28;20056;-67
2021/05/18 15:19:07;;;;;;;2.50;1.13;;;15.70;99.90;;;;;;5020116;28;20053;-67
2021/05/18 15:21:34;;;;;;;4.45;0.80;;;15.70;99.90;;;;;;5018675;28;20624;-67
2021/05/18 15:24:00;;;;;;;5.97;0.90;;;14.70;99.90;;;;;;5019480;28;20497;-67
2021/05/18 15:26:27;;;;;;;1.55;0.60;;;14.10;99.90;;;;;;5018040;28;20560;-67
2021/05/18 15:28:54;;;;;;;2.20;0.70;;;14.00;99.90;;;;;;5020175;28;20282;-67
2021/05/18 15:31:20;;;;;;;2.17;0.90;;;13.90;99.90;;;;;;5023480;28;20049;-68
2021/05/18 15:33:48;;;;;;;4.15;1.05;;;14.30;99.90;;;;;;5021233;28;20053;-68
2021/05/18 15:36:15;;;;;;;4.50;1.35;;;14.70;99.90;;;;;;5020644;28;20045;-68
2021/05/18 15:38:44;;;;;;;3.15;1.00;;;15.10;99.90;;;;;;5020623;28;20060;-67
2021/05/18 15:41:12;;;;;;;3.38;1.00;;;15.30;99.90;;;;;;5023854;28;20048;-67
2021/05/18 15:43:38;;;;;;;3.45;1.00;;;15.20;99.90;;;;;;5023584;28;20052;-67
2021/05/18 15:46:05;;;;;;;3.50;1.38;;;15.40;99.90;;;;;;5020901;28;20048;-69
2021/05/18 15:48:32;;;;;;;1.05;0.70;;;15.70;99.90;;;;;;5019317;28;20436;-67
2021/05/18 15:51:00;;;;;;;4.35;0.93;;;15.90;99.90;;;;;;5020752;28;20045;-67
2021/05/18 15:53:27;;;;;;;1.45;0.68;;;16.10;99.90;;;;;;5022468;28;20505;-68
2021/05/18 15:55:53;;;;;;;1.60;0.80;;;16.20;99.90;;;;;;5019946;28;20049;-67
2021/05/18 15:58:20;;;;;;;4.25;1.20;;;16.20;99.90;;;;;;5022750;28;20870;-67
2021/05/18 16:00:48;;;;;;;2.35;0.80;;;16.00;99.90;;;;;;5020724;28;20069;-67
2021/05/18 16:03:15;;;;;;;2.67;0.70;;;16.10;99.90;;;;;;5023599;28;20187;-67
2021/05/18 16:05:41;;;;;;;3.13;1.00;;;16.00;99.90;;;;;;5021451;28;20068;-67
2021/05/18 16:08:58;;;;;;;1.77;0.73;;;15.80;99.90;;;;;;5020131;28;20049;-67
2021/05/18 16:10:58;;;;;;;4.18;1.08;;;15.70;99.90;;;;;;5020935;28;20056;-67
2021/05/18 16:13:24;;;;;;;4.03;1.02;;;15.50;99.90;;;;;;5023797;28;20053;-67
2021/05/18 16:15:51;;;;;;;1.08;0.80;;;15.70;99.90;;;;;;5022673;28;20046;-67
2021/05/18 16:18:18;;;;;;;1.05;0.60;;;15.90;99.90;;;;;;5023106;28;20056;-67
2021/05/18 16:20:44;;;;;;;1.52;0.77;;;16.00;99.90;;;;;;5024868;28;20106;-67
2021/05/18 16:23:12;;;;;;;2.05;0.80;;;16.00;99.90;;;;;;5021192;28;20053;-67
2021/05/18 16:25:38;;;;;;;3.85;1.17;;;16.20;99.90;;;;;;5021392;28;20045;-67
2021/05/18 16:28:05;;;;;;;2.40;0.75;;;16.30;99.90;;;;;;5019574;28;20103;-67
2021/05/18 16:30:32;;;;;;;3.03;0.90;;;16.30;99.90;;;;;;5022700;28;20061;-68
2021/05/18 16:32:58;;;;;;;5.68;1.00;;;16.50;99.90;;;;;;5020266;28;20045;-67
2021/05/18 16:35:25;;;;;;;1.90;0.73;;;16.60;99.90;;;;;;5023811;28;20140;-67
2021/05/18 16:37:52;;;;;;;2.88;0.90;;;16.50;99.90;;;;;;5022127;28;20057;-67
2021/05/18 16:40:19;;;;;;;6.43;0.90;;;16.30;99.90;;;;;;5020570;28;20045;-67
2021/05/18 16:42:46;;;;;;;3.53;0.90;;;16.50;99.90;;;;;;5019683;28;20510;-67
2021/05/18 16:45:13;;;;;;;3.50;1.10;;;16.60;99.90;;;;;;5019953;28;20466;-67
2021/05/18 16:47:40;;;;;;;2.10;0.93;;;16.60;99.90;;;;;;5020478;28;20054;-67
2021/05/18 16:50:09;;;;;;;3.15;0.63;;;16.70;99.90;;;;;;5021632;28;20053;-67
2021/05/18 16:52:35;;;;;;;1.20;0.63;;;16.30;99.90;;;;;;5019541;28;20084;-67
2021/05/18 16:55:03;;;;;;;2.22;0.63;;;16.10;99.90;;;;;;5019543;28;20041;-67
2021/05/18 16:57:30;;;;;;;2.00;0.70;;;16.20;99.90;;;;;;5017740;28;20103;-67
2021/05/18 16:59:56;;;;;;;2.08;0.70;;;16.30;99.90;;;;;;5018458;28;20414;-67
2021/05/18 17:02:23;;;;;;;1.75;0.68;;;16.30;99.90;;;;;;5018658;28;20079;-68
2021/05/18 17:04:50;;;;;;;2.03;0.80;;;16.30;99.90;;;;;;5018349;28;20480;-68
2021/05/18 17:07:17;;;;;;;4.40;1.00;;;16.30;99.90;;;;;;5016694;28;20525;-68
2021/05/18 17:09:43;;;;;;;1.50;0.60;;;16.10;99.90;;;;;;5019727;28;20457;-67
2021/05/18 17:12:10;;;;;;;1.80;0.68;;;16.00;99.90;;;;;;5018509;28;20045;-67